sensor_id;sensor_type;location;lat;lon;timestamp;P1;durP1;ratioP1;P2;durP2;ratioP2
52608;SDS011;38503;48.544;12.142;2022-09-02T00:01:41;6.20;;;5.60;;
52608;SDS011;38503;48.544;12.142;2022-09-02T00:04:18;6.50;;;5.90;;
52608;SDS011;38503;48.544;12.142;2022-09-02T00:06:48;8.97;;;5.73;;
52608;SDS011;38503;48.544;12.142;2022-09-02T00:09:17;6.40;;;5.73;;
52608;SDS011;38503;48.544;12.142;2022-09-02T00:11:46;6.67;;;6.07;;
52608;SDS011;38503;48.544;12.142;2022-09-02T00:14:16;6.97;;;5.87;;
52608;SDS011;38503;48.544;12.142;2022-09-02T00:16:46;8.03;;;5.63;;
52608;SDS011;38503;48.544;12.142;2022-09-02T00:19:21;6.03;;;5.43;;
52608;SDS011;38503;48.544;12.142;2022-09-02T00:21:50;6.57;;;5.90;;
52608;SDS011;38503;48.544;12.142;2022-09-02T00:24:17;6.40;;;5.60;;
52608;SDS011;38503;48.544;12.142;2022-09-02T00:26:45;7.27;;;5.97;;
52608;SDS011;38503;48.544;12.142;2022-09-02T00:29:12;6.60;;;6.00;;
52608;SDS011;38503;48.544;12.142;2022-09-02T00:31:43;7.10;;;6.37;;
52608;SDS011;38503;48.544;12.142;2022-09-02T00:34:11;6.67;;;6.07;;
52608;SDS011;38503;48.544;12.142;2022-09-02T00:36:38;6.67;;;5.93;;
52608;SDS011;38503;48.544;12.142;2022-09-02T00:39:05;8.47;;;5.60;;
52608;SDS011;38503;48.544;12.142;2022-09-02T00:41:34;6.70;;;6.00;;
52608;SDS011;38503;48.544;12.142;2022-09-02T00:44:05;6.30;;;5.50;;
52608;SDS011;38503;48.544;12.142;2022-09-02T00:46:34;6.90;;;6.20;;
52608;SDS011;38503;48.544;12.142;2022-09-02T00:49:09;7.80;;;5.77;;
52608;SDS011;38503;48.544;12.142;2022-09-02T00:52:21;6.20;;;5.67;;
52608;SDS011;38503;48.544;12.142;2022-09-02T00:54:50;6.60;;;6.00;;
52608;SDS011;38503;48.544;12.142;2022-09-02T00:57:23;6.60;;;5.80;;
52608;SDS011;38503;48.544;12.142;2022-09-02T01:02:34;6.67;;;6.07;;
52608;SDS011;38503;48.544;12.142;2022-09-02T01:05:04;7.17;;;6.47;;
52608;SDS011;38503;48.544;12.142;2022-09-02T01:07:36;7.50;;;6.77;;
52608;SDS011;38503;48.544;12.142;2022-09-02T01:10:05;7.00;;;6.40;;
52608;SDS011;38503;48.544;12.142;2022-09-02T01:12:34;7.43;;;6.30;;
52608;SDS011;38503;48.544;12.142;2022-09-02T01:15:03;8.90;;;6.77;;
52608;SDS011;38503;48.544;12.142;2022-09-02T01:17:32;8.13;;;6.30;;
52608;SDS011;38503;48.544;12.142;2022-09-02T01:20:07;7.67;;;6.27;;
52608;SDS011;38503;48.544;12.142;2022-09-02T01:22:39;7.63;;;6.53;;
52608;SDS011;38503;48.544;12.142;2022-09-02T01:25:09;6.47;;;5.87;;
52608;SDS011;38503;48.544;12.142;2022-09-02T01:27:39;6.60;;;5.93;;
52608;SDS011;38503;48.544;12.142;2022-09-02T01:30:08;6.97;;;6.33;;
52608;SDS011;38503;48.544;12.142;2022-09-02T01:32:36;6.50;;;5.90;;
52608;SDS011;38503;48.544;12.142;2022-09-02T01:35:04;6.80;;;6.30;;
52608;SDS011;38503;48.544;12.142;2022-09-02T01:37:31;8.30;;;6.90;;
52608;SDS011;38503;48.544;12.142;2022-09-02T01:39:59;9.47;;;6.37;;
52608;SDS011;38503;48.544;12.142;2022-09-02T01:42:26;7.77;;;7.03;;
52608;SDS011;38503;48.544;12.142;2022-09-02T01:44:52;7.60;;;6.80;;
52608;SDS011;38503;48.544;12.142;2022-09-02T01:47:21;8.17;;;7.20;;
52608;SDS011;38503;48.544;12.142;2022-09-02T01:49:51;7.60;;;6.87;;
52608;SDS011;38503;48.544;12.142;2022-09-02T01:52:19;8.00;;;7.30;;
52608;SDS011;38503;48.544;12.142;2022-09-02T01:54:50;7.67;;;6.97;;
52608;SDS011;38503;48.544;12.142;2022-09-02T01:57:17;9.73;;;8.07;;
52608;SDS011;38503;48.544;12.142;2022-09-02T01:59:44;7.73;;;7.03;;
52608;SDS011;38503;48.544;12.142;2022-09-02T02:02:12;7.83;;;7.13;;
52608;SDS011;38503;48.544;12.142;2022-09-02T02:04:39;9.97;;;7.50;;
52608;SDS011;38503;48.544;12.142;2022-09-02T02:07:06;7.47;;;6.77;;
52608;SDS011;38503;48.544;12.142;2022-09-02T02:09:33;8.10;;;7.30;;
52608;SDS011;38503;48.544;12.142;2022-09-02T02:12:00;8.17;;;7.37;;
52608;SDS011;38503;48.544;12.142;2022-09-02T02:14:28;8.77;;;7.97;;
52608;SDS011;38503;48.544;12.142;2022-09-02T02:16:56;8.67;;;7.87;;
52608;SDS011;38503;48.544;12.142;2022-09-02T02:19:23;8.90;;;8.00;;
52608;SDS011;38503;48.544;12.142;2022-09-02T02:21:49;7.53;;;6.83;;
52608;SDS011;38503;48.544;12.142;2022-09-02T02:24:17;9.97;;;7.27;;
52608;SDS011;38503;48.544;12.142;2022-09-02T02:26:44;8.77;;;7.60;;
52608;SDS011;38503;48.544;12.142;2022-09-02T02:29:12;8.03;;;7.23;;
52608;SDS011;38503;48.544;12.142;2022-09-02T02:31:39;7.90;;;7.20;;
52608;SDS011;38503;48.544;12.142;2022-09-02T02:34:07;8.60;;;7.70;;
52608;SDS011;38503;48.544;12.142;2022-09-02T02:36:36;10.10;;;8.37;;
52608;SDS011;38503;48.544;12.142;2022-09-02T02:39:06;8.30;;;7.57;;
52608;SDS011;38503;48.544;12.142;2022-09-02T02:41:35;8.70;;;7.90;;
52608;SDS011;38503;48.544;12.142;2022-09-02T02:44:03;8.37;;;7.57;;
52608;SDS011;38503;48.544;12.142;2022-09-02T02:46:30;8.50;;;7.60;;
52608;SDS011;38503;48.544;12.142;2022-09-02T02:48:59;8.40;;;7.60;;
52608;SDS011;38503;48.544;12.142;2022-09-02T02:51:26;8.00;;;7.30;;
52608;SDS011;38503;48.544;12.142;2022-09-02T02:53:53;12.90;;;8.03;;
52608;SDS011;38503;48.544;12.142;2022-09-02T02:56:24;8.00;;;7.30;;
52608;SDS011;38503;48.544;12.142;2022-09-02T02:58:51;8.10;;;6.93;;
52608;SDS011;38503;48.544;12.142;2022-09-02T03:01:17;7.93;;;7.17;;
52608;SDS011;38503;48.544;12.142;2022-09-02T03:03:44;7.73;;;7.03;;
52608;SDS011;38503;48.544;12.142;2022-09-02T03:06:11;9.70;;;8.00;;
52608;SDS011;38503;48.544;12.142;2022-09-02T03:08:38;8.67;;;7.40;;
52608;SDS011;38503;48.544;12.142;2022-09-02T03:11:05;9.43;;;7.67;;
52608;SDS011;38503;48.544;12.142;2022-09-02T03:13:33;9.00;;;7.80;;
52608;SDS011;38503;48.544;12.142;2022-09-02T03:16:00;7.77;;;7.07;;
52608;SDS011;38503;48.544;12.142;2022-09-02T03:18:33;7.77;;;6.93;;
52608;SDS011;38503;48.544;12.142;2022-09-02T03:21:00;8.37;;;7.57;;
52608;SDS011;38503;48.544;12.142;2022-09-02T03:23:32;8.90;;;8.03;;
52608;SDS011;38503;48.544;12.142;2022-09-02T03:25:59;8.40;;;7.60;;
52608;SDS011;38503;48.544;12.142;2022-09-02T03:28:26;8.03;;;7.13;;
52608;SDS011;38503;48.544;12.142;2022-09-02T03:30:53;8.13;;;7.33;;
52608;SDS011;38503;48.544;12.142;2022-09-02T03:33:21;8.43;;;7.63;;
52608;SDS011;38503;48.544;12.142;2022-09-02T03:35:48;7.73;;;7.13;;
52608;SDS011;38503;48.544;12.142;2022-09-02T03:38:15;8.13;;;7.33;;
52608;SDS011;38503;48.544;12.142;2022-09-02T03:40:42;7.60;;;6.90;;
52608;SDS011;38503;48.544;12.142;2022-09-02T03:43:09;7.80;;;7.10;;
52608;SDS011;38503;48.544;12.142;2022-09-02T03:45:37;10.23;;;6.97;;
52608;SDS011;38503;48.544;12.142;2022-09-02T03:48:07;7.40;;;6.70;;
52608;SDS011;38503;48.544;12.142;2022-09-02T03:50:36;7.70;;;6.63;;
52608;SDS011;38503;48.544;12.142;2022-09-02T03:53:05;7.53;;;6.80;;
52608;SDS011;38503;48.544;12.142;2022-09-02T03:55:34;8.87;;;8.07;;
52608;SDS011;38503;48.544;12.142;2022-09-02T03:58:02;7.60;;;6.90;;
52608;SDS011;38503;48.544;12.142;2022-09-02T04:00:33;7.37;;;6.77;;
52608;SDS011;38503;48.544;12.142;2022-09-02T04:03:00;8.17;;;6.97;;
52608;SDS011;38503;48.544;12.142;2022-09-02T04:05:29;7.10;;;6.50;;
52608;SDS011;38503;48.544;12.142;2022-09-02T04:07:56;7.70;;;6.90;;
52608;SDS011;38503;48.544;12.142;2022-09-02T04:10:23;6.63;;;6.10;;
52608;SDS011;38503;48.544;12.142;2022-09-02T04:12:51;6.97;;;6.37;;
52608;SDS011;38503;48.544;12.142;2022-09-02T04:15:19;7.47;;;6.77;;
52608;SDS011;38503;48.544;12.142;2022-09-02T04:21:18;8.13;;;6.17;;
52608;SDS011;38503;48.544;12.142;2022-09-02T04:23:46;8.10;;;7.30;;
52608;SDS011;38503;48.544;12.142;2022-09-02T04:26:14;7.83;;;7.13;;
52608;SDS011;38503;48.544;12.142;2022-09-02T04:28:43;9.27;;;7.67;;
52608;SDS011;38503;48.544;12.142;2022-09-02T04:31:11;8.93;;;7.80;;
52608;SDS011;38503;48.544;12.142;2022-09-02T04:33:40;8.90;;;7.17;;
52608;SDS011;38503;48.544;12.142;2022-09-02T04:36:08;8.37;;;7.30;;
52608;SDS011;38503;48.544;12.142;2022-09-02T04:38:39;8.33;;;7.20;;
52608;SDS011;38503;48.544;12.142;2022-09-02T04:41:11;10.27;;;7.40;;
52608;SDS011;38503;48.544;12.142;2022-09-02T04:43:40;10.00;;;8.43;;
52608;SDS011;38503;48.544;12.142;2022-09-02T04:46:08;13.33;;;8.13;;
52608;SDS011;38503;48.544;12.142;2022-09-02T04:48:38;11.20;;;8.43;;
52608;SDS011;38503;48.544;12.142;2022-09-02T04:51:06;8.07;;;7.37;;
52608;SDS011;38503;48.544;12.142;2022-09-02T04:53:35;9.57;;;7.53;;
52608;SDS011;38503;48.544;12.142;2022-09-02T04:56:04;9.97;;;8.27;;
52608;SDS011;38503;48.544;12.142;2022-09-02T04:58:32;9.80;;;7.37;;
52608;SDS011;38503;48.544;12.142;2022-09-02T05:01:04;10.33;;;7.37;;
52608;SDS011;38503;48.544;12.142;2022-09-02T05:03:36;9.27;;;7.37;;
52608;SDS011;38503;48.544;12.142;2022-09-02T05:06:04;9.63;;;7.40;;
52608;SDS011;38503;48.544;12.142;2022-09-02T05:08:33;8.20;;;7.40;;
52608;SDS011;38503;48.544;12.142;2022-09-02T05:11:06;10.40;;;7.10;;
52608;SDS011;38503;48.544;12.142;2022-09-02T05:13:34;8.33;;;7.27;;
52608;SDS011;38503;48.544;12.142;2022-09-02T05:16:01;7.80;;;7.10;;
52608;SDS011;38503;48.544;12.142;2022-09-02T05:18:28;7.27;;;6.57;;
52608;SDS011;38503;48.544;12.142;2022-09-02T05:20:55;9.60;;;7.20;;
52608;SDS011;38503;48.544;12.142;2022-09-02T05:23:22;8.13;;;7.13;;
52608;SDS011;38503;48.544;12.142;2022-09-02T05:25:49;10.87;;;7.50;;
52608;SDS011;38503;48.544;12.142;2022-09-02T05:28:16;8.87;;;7.27;;
52608;SDS011;38503;48.544;12.142;2022-09-02T05:30:43;10.30;;;7.10;;
52608;SDS011;38503;48.544;12.142;2022-09-02T05:33:10;7.63;;;6.80;;
52608;SDS011;38503;48.544;12.142;2022-09-02T05:35:44;7.27;;;6.40;;
52608;SDS011;38503;48.544;12.142;2022-09-02T05:38:15;8.70;;;6.17;;
52608;SDS011;38503;48.544;12.142;2022-09-02T05:40:42;10.37;;;6.40;;
52608;SDS011;38503;48.544;12.142;2022-09-02T05:43:09;8.23;;;5.67;;
52608;SDS011;38503;48.544;12.142;2022-09-02T05:45:36;10.17;;;5.60;;
52608;SDS011;38503;48.544;12.142;2022-09-02T05:48:04;6.87;;;6.23;;
52608;SDS011;38503;48.544;12.142;2022-09-02T05:50:51;6.33;;;5.70;;
52608;SDS011;38503;48.544;12.142;2022-09-02T05:53:23;9.13;;;5.47;;
52608;SDS011;38503;48.544;12.142;2022-09-02T05:55:52;6.27;;;5.37;;
52608;SDS011;38503;48.544;12.142;2022-09-02T05:58:19;7.20;;;5.30;;
52608;SDS011;38503;48.544;12.142;2022-09-02T06:00:46;5.50;;;5.00;;
52608;SDS011;38503;48.544;12.142;2022-09-02T06:03:13;7.57;;;4.47;;
52608;SDS011;38503;48.544;12.142;2022-09-02T06:05:40;5.50;;;4.40;;
52608;SDS011;38503;48.544;12.142;2022-09-02T06:08:07;4.73;;;4.33;;
52608;SDS011;38503;48.544;12.142;2022-09-02T06:10:40;8.13;;;4.57;;
52608;SDS011;38503;48.544;12.142;2022-09-02T06:13:10;4.30;;;3.90;;
52608;SDS011;38503;48.544;12.142;2022-09-02T06:15:41;5.23;;;3.90;;
52608;SDS011;38503;48.544;12.142;2022-09-02T06:18:09;3.90;;;3.57;;
52608;SDS011;38503;48.544;12.142;2022-09-02T06:20:42;4.00;;;3.60;;
52608;SDS011;38503;48.544;12.142;2022-09-02T06:23:12;3.77;;;3.20;;
52608;SDS011;38503;48.544;12.142;2022-09-02T06:25:41;4.00;;;3.20;;
52608;SDS011;38503;48.544;12.142;2022-09-02T06:28:10;4.37;;;3.30;;
52608;SDS011;38503;48.544;12.142;2022-09-02T06:30:38;3.40;;;3.10;;
52608;SDS011;38503;48.544;12.142;2022-09-02T06:33:08;3.60;;;2.70;;
52608;SDS011;38503;48.544;12.142;2022-09-02T06:35:36;3.33;;;2.90;;
52608;SDS011;38503;48.544;12.142;2022-09-02T06:38:04;4.93;;;3.03;;
52608;SDS011;38503;48.544;12.142;2022-09-02T06:40:31;6.33;;;3.27;;
52608;SDS011;38503;48.544;12.142;2022-09-02T06:42:58;3.97;;;3.30;;
52608;SDS011;38503;48.544;12.142;2022-09-02T06:45:25;3.30;;;2.63;;
52608;SDS011;38503;48.544;12.142;2022-09-02T06:47:52;4.30;;;3.17;;
52608;SDS011;38503;48.544;12.142;2022-09-02T06:50:19;4.57;;;3.00;;
52608;SDS011;38503;48.544;12.142;2022-09-02T06:52:46;4.63;;;2.83;;
52608;SDS011;38503;48.544;12.142;2022-09-02T06:55:13;2.73;;;2.53;;
52608;SDS011;38503;48.544;12.142;2022-09-02T06:57:41;3.57;;;3.27;;
52608;SDS011;38503;48.544;12.142;2022-09-02T07:00:08;5.80;;;3.10;;
52608;SDS011;38503;48.544;12.142;2022-09-02T07:02:36;3.57;;;2.90;;
52608;SDS011;38503;48.544;12.142;2022-09-02T07:05:03;3.80;;;2.90;;
52608;SDS011;38503;48.544;12.142;2022-09-02T07:07:37;4.10;;;2.30;;
52608;SDS011;38503;48.544;12.142;2022-09-02T07:10:06;3.10;;;2.80;;
52608;SDS011;38503;48.544;12.142;2022-09-02T07:12:36;4.47;;;2.40;;
52608;SDS011;38503;48.544;12.142;2022-09-02T07:15:04;3.13;;;2.30;;
52608;SDS011;38503;48.544;12.142;2022-09-02T07:17:32;2.37;;;2.00;;
52608;SDS011;38503;48.544;12.142;2022-09-02T07:20:02;3.10;;;2.43;;
52608;SDS011;38503;48.544;12.142;2022-09-02T07:22:30;4.33;;;2.40;;
52608;SDS011;38503;48.544;12.142;2022-09-02T07:24:57;3.07;;;2.33;;
52608;SDS011;38503;48.544;12.142;2022-09-02T07:27:25;3.13;;;2.00;;
52608;SDS011;38503;48.544;12.142;2022-09-02T07:29:52;2.27;;;2.00;;
52608;SDS011;38503;48.544;12.142;2022-09-02T07:32:19;2.90;;;2.00;;
52608;SDS011;38503;48.544;12.142;2022-09-02T07:34:47;3.17;;;2.33;;
52608;SDS011;38503;48.544;12.142;2022-09-02T07:37:14;4.27;;;2.37;;
52608;SDS011;38503;48.544;12.142;2022-09-02T07:39:41;2.77;;;1.80;;
52608;SDS011;38503;48.544;12.142;2022-09-02T07:42:09;2.13;;;1.93;;
52608;SDS011;38503;48.544;12.142;2022-09-02T07:44:37;2.97;;;1.93;;
52608;SDS011;38503;48.544;12.142;2022-09-02T07:47:04;3.17;;;2.30;;
52608;SDS011;38503;48.544;12.142;2022-09-02T07:49:31;2.43;;;1.77;;
52608;SDS011;38503;48.544;12.142;2022-09-02T07:52:18;1.93;;;1.73;;
52608;SDS011;38503;48.544;12.142;2022-09-02T07:54:45;1.93;;;1.70;;
52608;SDS011;38503;48.544;12.142;2022-09-02T07:57:12;2.50;;;1.93;;
52608;SDS011;38503;48.544;12.142;2022-09-02T07:59:39;2.30;;;1.80;;
52608;SDS011;38503;48.544;12.142;2022-09-02T08:02:06;1.70;;;1.60;;
52608;SDS011;38503;48.544;12.142;2022-09-02T08:04:34;2.53;;;1.70;;
52608;SDS011;38503;48.544;12.142;2022-09-02T08:07:01;2.17;;;1.60;;
52608;SDS011;38503;48.544;12.142;2022-09-02T08:09:29;4.47;;;1.60;;
52608;SDS011;38503;48.544;12.142;2022-09-02T08:11:56;3.60;;;1.83;;
52608;SDS011;38503;48.544;12.142;2022-09-02T08:14:24;2.90;;;1.90;;
52608;SDS011;38503;48.544;12.142;2022-09-02T08:16:55;2.73;;;1.90;;
52608;SDS011;38503;48.544;12.142;2022-09-02T08:19:23;1.90;;;1.57;;
52608;SDS011;38503;48.544;12.142;2022-09-02T08:21:50;2.90;;;1.40;;
52608;SDS011;38503;48.544;12.142;2022-09-02T08:24:17;2.20;;;1.80;;
52608;SDS011;38503;48.544;12.142;2022-09-02T08:26:44;2.13;;;1.73;;
52608;SDS011;38503;48.544;12.142;2022-09-02T08:29:11;2.43;;;1.43;;
52608;SDS011;38503;48.544;12.142;2022-09-02T08:31:38;3.77;;;1.50;;
52608;SDS011;38503;48.544;12.142;2022-09-02T08:34:06;2.53;;;1.60;;
52608;SDS011;38503;48.544;12.142;2022-09-02T08:36:33;2.20;;;1.43;;
52608;SDS011;38503;48.544;12.142;2022-09-02T08:39:01;3.37;;;1.63;;
52608;SDS011;38503;48.544;12.142;2022-09-02T08:44:03;2.43;;;1.80;;
52608;SDS011;38503;48.544;12.142;2022-09-02T08:46:31;2.43;;;1.67;;
52608;SDS011;38503;48.544;12.142;2022-09-02T08:49:02;3.60;;;1.50;;
52608;SDS011;38503;48.544;12.142;2022-09-02T08:51:40;3.40;;;1.50;;
52608;SDS011;38503;48.544;12.142;2022-09-02T08:54:09;2.47;;;1.50;;
52608;SDS011;38503;48.544;12.142;2022-09-02T08:56:48;3.07;;;1.50;;
52608;SDS011;38503;48.544;12.142;2022-09-02T08:59:17;2.03;;;1.53;;
52608;SDS011;38503;48.544;12.142;2022-09-02T09:07:29;1.93;;;1.60;;
52608;SDS011;38503;48.544;12.142;2022-09-02T09:15:30;2.60;;;1.70;;
52608;SDS011;38503;48.544;12.142;2022-09-02T09:18:08;2.17;;;1.43;;
52608;SDS011;38503;48.544;12.142;2022-09-02T09:20:42;1.88;;;1.60;;
52608;SDS011;38503;48.544;12.142;2022-09-02T09:26:12;3.40;;;1.63;;
52608;SDS011;38503;48.544;12.142;2022-09-02T09:28:44;1.80;;;1.40;;
52608;SDS011;38503;48.544;12.142;2022-09-02T09:31:16;3.50;;;1.67;;
52608;SDS011;38503;48.544;12.142;2022-09-02T09:33:58;2.47;;;1.60;;
52608;SDS011;38503;48.544;12.142;2022-09-02T09:39:23;1.40;;;1.30;;
52608;SDS011;38503;48.544;12.142;2022-09-02T09:41:51;4.40;;;1.80;;
52608;SDS011;38503;48.544;12.142;2022-09-02T09:47:04;1.80;;;1.60;;
52608;SDS011;38503;48.544;12.142;2022-09-02T09:49:42;1.80;;;1.40;;
52608;SDS011;38503;48.544;12.142;2022-09-02T09:52:09;1.70;;;1.43;;
52608;SDS011;38503;48.544;12.142;2022-09-02T09:54:37;1.47;;;1.20;;
52608;SDS011;38503;48.544;12.142;2022-09-02T09:57:19;1.67;;;1.47;;
52608;SDS011;38503;48.544;12.142;2022-09-02T09:59:47;3.10;;;1.60;;
52608;SDS011;38503;48.544;12.142;2022-09-02T10:02:23;1.80;;;1.40;;
52608;SDS011;38503;48.544;12.142;2022-09-02T10:04:52;2.37;;;1.60;;
52608;SDS011;38503;48.544;12.142;2022-09-02T10:07:35;2.10;;;1.30;;
52608;SDS011;38503;48.544;12.142;2022-09-02T10:10:14;1.77;;;1.43;;
52608;SDS011;38503;48.544;12.142;2022-09-02T10:12:43;1.80;;;1.50;;
52608;SDS011;38503;48.544;12.142;2022-09-02T10:15:11;2.37;;;1.57;;
52608;SDS011;38503;48.544;12.142;2022-09-02T10:20:32;1.50;;;1.40;;
52608;SDS011;38503;48.544;12.142;2022-09-02T10:26:53;1.80;;;1.40;;
52608;SDS011;38503;48.544;12.142;2022-09-02T10:34:54;4.77;;;1.60;;
52608;SDS011;38503;48.544;12.142;2022-09-02T10:37:23;1.40;;;1.30;;
52608;SDS011;38503;48.544;12.142;2022-09-02T10:39:56;1.97;;;1.60;;
52608;SDS011;38503;48.544;12.142;2022-09-02T10:45:32;2.73;;;1.40;;
52608;SDS011;38503;48.544;12.142;2022-09-02T10:51:31;1.57;;;1.23;;
52608;SDS011;38503;48.544;12.142;2022-09-02T10:57:08;1.77;;;1.20;;
52608;SDS011;38503;48.544;12.142;2022-09-02T11:02:19;4.20;;;1.50;;
52608;SDS011;38503;48.544;12.142;2022-09-02T11:05:28;1.37;;;1.00;;
52608;SDS011;38503;48.544;12.142;2022-09-02T11:08:16;3.30;;;1.50;;
52608;SDS011;38503;48.544;12.142;2022-09-02T11:16:33;2.17;;;1.17;;
52608;SDS011;38503;48.544;12.142;2022-09-02T11:19:13;2.30;;;1.30;;
52608;SDS011;38503;48.544;12.142;2022-09-02T11:24:57;2.57;;;1.40;;
52608;SDS011;38503;48.544;12.142;2022-09-02T11:28:12;1.43;;;1.33;;
52608;SDS011;38503;48.544;12.142;2022-09-02T11:30:29;2.30;;;1.40;;
52608;SDS011;38503;48.544;12.142;2022-09-02T11:33:19;1.77;;;1.33;;
52608;SDS011;38503;48.544;12.142;2022-09-02T11:35:52;1.60;;;1.20;;
52608;SDS011;38503;48.544;12.142;2022-09-02T11:49:42;2.20;;;1.80;;
52608;SDS011;38503;48.544;12.142;2022-09-02T11:55:23;2.13;;;1.50;;
52608;SDS011;38503;48.544;12.142;2022-09-02T11:57:57;2.37;;;1.40;;
52608;SDS011;38503;48.544;12.142;2022-09-02T12:00:27;1.97;;;1.40;;
52608;SDS011;38503;48.544;12.142;2022-09-02T12:08:55;1.43;;;1.33;;
52608;SDS011;38503;48.544;12.142;2022-09-02T12:11:33;1.90;;;1.42;;
52608;SDS011;38503;48.544;12.142;2022-09-02T12:14:05;3.17;;;1.30;;
52608;SDS011;38503;48.544;12.142;2022-09-02T12:17:00;4.67;;;1.40;;
52608;SDS011;38503;48.544;12.142;2022-09-02T12:19:42;1.40;;;1.20;;
52608;SDS011;38503;48.544;12.142;2022-09-02T12:24:56;2.30;;;1.27;;
52608;SDS011;38503;48.544;12.142;2022-09-02T12:27:33;1.73;;;1.40;;
52608;SDS011;38503;48.544;12.142;2022-09-02T12:30:05;1.40;;;1.30;;
52608;SDS011;38503;48.544;12.142;2022-09-02T12:35:13;1.67;;;1.27;;
52608;SDS011;38503;48.544;12.142;2022-09-02T12:40:45;1.30;;;1.17;;
52608;SDS011;38503;48.544;12.142;2022-09-02T12:43:27;4.70;;;1.33;;
52608;SDS011;38503;48.544;12.142;2022-09-02T12:46:15;1.53;;;1.37;;
52608;SDS011;38503;48.544;12.142;2022-09-02T12:52:09;1.40;;;1.30;;
52608;SDS011;38503;48.544;12.142;2022-09-02T12:54:57;1.53;;;1.37;;
52608;SDS011;38503;48.544;12.142;2022-09-02T12:57:43;1.83;;;1.30;;
52608;SDS011;38503;48.544;12.142;2022-09-02T13:14:34;1.70;;;1.47;;
52608;SDS011;38503;48.544;12.142;2022-09-02T13:20:17;1.53;;;1.40;;
52608;SDS011;38503;48.544;12.142;2022-09-02T13:26:09;2.53;;;1.40;;
52608;SDS011;38503;48.544;12.142;2022-09-02T13:31:39;2.57;;;1.40;;
52608;SDS011;38503;48.544;12.142;2022-09-02T13:34:11;3.10;;;1.33;;
52608;SDS011;38503;48.544;12.142;2022-09-02T13:36:42;2.07;;;1.30;;
52608;SDS011;38503;48.544;12.142;2022-09-02T13:39:18;1.40;;;1.30;;
52608;SDS011;38503;48.544;12.142;2022-09-02T13:41:46;2.13;;;1.60;;
52608;SDS011;38503;48.544;12.142;2022-09-02T13:44:22;1.60;;;1.50;;
52608;SDS011;38503;48.544;12.142;2022-09-02T13:46:56;1.70;;;1.33;;
52608;SDS011;38503;48.544;12.142;2022-09-02T13:49:41;1.70;;;1.30;;
52608;SDS011;38503;48.544;12.142;2022-09-02T13:52:18;2.00;;;1.30;;
52608;SDS011;38503;48.544;12.142;2022-09-02T13:55:09;3.47;;;1.43;;
52608;SDS011;38503;48.544;12.142;2022-09-02T13:57:41;2.13;;;1.43;;
52608;SDS011;38503;48.544;12.142;2022-09-02T14:00:12;3.17;;;1.40;;
52608;SDS011;38503;48.544;12.142;2022-09-02T14:02:41;1.60;;;1.37;;
52608;SDS011;38503;48.544;12.142;2022-09-02T14:05:25;1.20;;;1.10;;
52608;SDS011;38503;48.544;12.142;2022-09-02T14:07:53;1.90;;;1.60;;
52608;SDS011;38503;48.544;12.142;2022-09-02T14:10:23;3.00;;;1.60;;
52608;SDS011;38503;48.544;12.142;2022-09-02T14:12:53;1.50;;;1.40;;
52608;SDS011;38503;48.544;12.142;2022-09-02T14:15:29;3.13;;;1.23;;
52608;SDS011;38503;48.544;12.142;2022-09-02T14:20:34;1.37;;;1.27;;
52608;SDS011;38503;48.544;12.142;2022-09-02T14:23:02;2.53;;;1.47;;
52608;SDS011;38503;48.544;12.142;2022-09-02T14:25:38;2.63;;;1.50;;
52608;SDS011;38503;48.544;12.142;2022-09-02T14:28:20;1.40;;;1.30;;
52608;SDS011;38503;48.544;12.142;2022-09-02T14:30:53;3.73;;;1.30;;
52608;SDS011;38503;48.544;12.142;2022-09-02T14:36:07;1.20;;;1.10;;
52608;SDS011;38503;48.544;12.142;2022-09-02T14:41:11;2.70;;;1.43;;
52608;SDS011;38503;48.544;12.142;2022-09-02T14:44:11;3.03;;;2.27;;
52608;SDS011;38503;48.544;12.142;2022-09-02T14:46:49;1.57;;;1.40;;
52608;SDS011;38503;48.544;12.142;2022-09-02T14:49:23;3.83;;;1.63;;
52608;SDS011;38503;48.544;12.142;2022-09-02T14:51:58;7.20;;;5.10;;
52608;SDS011;38503;48.544;12.142;2022-09-02T14:59:59;2.70;;;1.40;;
52608;SDS011;38503;48.544;12.142;2022-09-02T15:04:59;1.40;;;1.30;;
52608;SDS011;38503;48.544;12.142;2022-09-02T15:07:28;1.60;;;1.50;;
52608;SDS011;38503;48.544;12.142;2022-09-02T15:09:55;2.23;;;1.60;;
52608;SDS011;38503;48.544;12.142;2022-09-02T15:12:24;2.57;;;1.47;;
52608;SDS011;38503;48.544;12.142;2022-09-02T15:14:56;4.07;;;1.63;;
52608;SDS011;38503;48.544;12.142;2022-09-02T15:17:24;1.50;;;1.27;;
52608;SDS011;38503;48.544;12.142;2022-09-02T15:19:51;1.70;;;1.60;;
52608;SDS011;38503;48.544;12.142;2022-09-02T15:22:18;1.80;;;1.40;;
52608;SDS011;38503;48.544;12.142;2022-09-02T15:24:45;1.73;;;1.40;;
52608;SDS011;38503;48.544;12.142;2022-09-02T15:27:14;2.37;;;1.67;;
52608;SDS011;38503;48.544;12.142;2022-09-02T15:29:47;7.23;;;1.50;;
52608;SDS011;38503;48.544;12.142;2022-09-02T15:32:14;1.20;;;1.10;;
52608;SDS011;38503;48.544;12.142;2022-09-02T15:34:41;2.30;;;1.23;;
52608;SDS011;38503;48.544;12.142;2022-09-02T15:37:08;1.40;;;1.30;;
52608;SDS011;38503;48.544;12.142;2022-09-02T15:39:38;1.53;;;1.30;;
52608;SDS011;38503;48.544;12.142;2022-09-02T15:42:06;1.83;;;1.50;;
52608;SDS011;38503;48.544;12.142;2022-09-02T15:44:33;1.50;;;1.30;;
52608;SDS011;38503;48.544;12.142;2022-09-02T15:47:00;1.30;;;1.20;;
52608;SDS011;38503;48.544;12.142;2022-09-02T15:49:27;1.47;;;1.33;;
52608;SDS011;38503;48.544;12.142;2022-09-02T15:51:56;1.90;;;1.70;;
52608;SDS011;38503;48.544;12.142;2022-09-02T15:54:23;2.13;;;1.20;;
52608;SDS011;38503;48.544;12.142;2022-09-02T15:56:54;1.87;;;1.40;;
52608;SDS011;38503;48.544;12.142;2022-09-02T15:59:22;3.57;;;1.63;;
52608;SDS011;38503;48.544;12.142;2022-09-02T16:01:51;1.43;;;1.33;;
52608;SDS011;38503;48.544;12.142;2022-09-02T16:04:26;1.27;;;1.17;;
52608;SDS011;38503;48.544;12.142;2022-09-02T16:06:52;1.20;;;1.10;;
52608;SDS011;38503;48.544;12.142;2022-09-02T16:09:19;2.27;;;1.50;;
52608;SDS011;38503;48.544;12.142;2022-09-02T16:11:50;1.63;;;1.53;;
52608;SDS011;38503;48.544;12.142;2022-09-02T16:14:19;1.60;;;1.50;;
52608;SDS011;38503;48.544;12.142;2022-09-02T16:16:47;1.43;;;1.33;;
52608;SDS011;38503;48.544;12.142;2022-09-02T16:19:17;1.37;;;1.20;;
52608;SDS011;38503;48.544;12.142;2022-09-02T16:21:47;4.60;;;1.87;;
52608;SDS011;38503;48.544;12.142;2022-09-02T16:24:18;1.63;;;1.30;;
52608;SDS011;38503;48.544;12.142;2022-09-02T16:26:46;1.37;;;1.27;;
52608;SDS011;38503;48.544;12.142;2022-09-02T16:29:14;1.80;;;1.30;;
52608;SDS011;38503;48.544;12.142;2022-09-02T16:31:43;1.63;;;1.53;;
52608;SDS011;38503;48.544;12.142;2022-09-02T16:34:32;4.30;;;1.30;;
52608;SDS011;38503;48.544;12.142;2022-09-02T16:36:58;1.30;;;1.20;;
52608;SDS011;38503;48.544;12.142;2022-09-02T16:39:25;2.00;;;1.43;;
52608;SDS011;38503;48.544;12.142;2022-09-02T16:41:52;1.43;;;1.23;;
52608;SDS011;38503;48.544;12.142;2022-09-02T16:44:20;1.93;;;1.73;;
52608;SDS011;38503;48.544;12.142;2022-09-02T16:46:49;1.20;;;1.10;;
52608;SDS011;38503;48.544;12.142;2022-09-02T16:49:17;2.70;;;1.40;;
52608;SDS011;38503;48.544;12.142;2022-09-02T16:51:45;1.20;;;1.10;;
52608;SDS011;38503;48.544;12.142;2022-09-02T16:54:24;4.70;;;1.50;;
52608;SDS011;38503;48.544;12.142;2022-09-02T16:56:58;1.50;;;1.40;;
52608;SDS011;38503;48.544;12.142;2022-09-02T16:59:26;1.50;;;1.40;;
52608;SDS011;38503;48.544;12.142;2022-09-02T17:01:53;2.90;;;1.50;;
52608;SDS011;38503;48.544;12.142;2022-09-02T17:04:20;2.20;;;1.40;;
52608;SDS011;38503;48.544;12.142;2022-09-02T17:06:47;1.57;;;1.47;;